sensor_id;sensor_type;location;lat;lon;timestamp;P1;durP1;ratioP1;P2;durP2;ratioP2
70560;SDS011;58109;53.570;10.084;2022-11-14T00:02:27;49.03;;;25.20;;
70560;SDS011;58109;53.570;10.084;2022-11-14T00:04:54;47.57;;;24.53;;
70560;SDS011;58109;53.570;10.084;2022-11-14T00:07:20;49.90;;;24.90;;
70560;SDS011;58109;53.570;10.084;2022-11-14T00:09:48;45.97;;;24.73;;
70560;SDS011;58109;53.570;10.084;2022-11-14T00:12:13;53.80;;;26.30;;
70560;SDS011;58109;53.570;10.084;2022-11-14T00:14:41;49.87;;;25.67;;
70560;SDS011;58109;53.570;10.084;2022-11-14T00:17:06;47.00;;;24.33;;
70560;SDS011;58109;53.570;10.084;2022-11-14T00:19:31;49.50;;;24.30;;
70560;SDS011;58109;53.570;10.084;2022-11-14T00:21:57;52.87;;;25.50;;
70560;SDS011;58109;53.570;10.084;2022-11-14T00:24:24;50.07;;;25.33;;
70560;SDS011;58109;53.570;10.084;2022-11-14T00:26:52;45.47;;;24.83;;
70560;SDS011;58109;53.570;10.084;2022-11-14T00:29:20;50.23;;;26.13;;
70560;SDS011;58109;53.570;10.084;2022-11-14T00:31:48;43.00;;;23.87;;
70560;SDS011;58109;53.570;10.084;2022-11-14T00:34:13;54.57;;;26.47;;
70560;SDS011;58109;53.570;10.084;2022-11-14T00:36:41;55.90;;;27.17;;
70560;SDS011;58109;53.570;10.084;2022-11-14T00:39:13;54.30;;;27.37;;
70560;SDS011;58109;53.570;10.084;2022-11-14T00:41:39;53.93;;;26.60;;
70560;SDS011;58109;53.570;10.084;2022-11-14T00:44:05;51.23;;;26.07;;
70560;SDS011;58109;53.570;10.084;2022-11-14T00:46:30;49.73;;;26.03;;
70560;SDS011;58109;53.570;10.084;2022-11-14T00:48:56;56.20;;;26.70;;
70560;SDS011;58109;53.570;10.084;2022-11-14T00:51:23;50.60;;;25.27;;
70560;SDS011;58109;53.570;10.084;2022-11-14T00:53:49;48.57;;;25.70;;
70560;SDS011;58109;53.570;10.084;2022-11-14T00:56:14;60.20;;;28.67;;
70560;SDS011;58109;53.570;10.084;2022-11-14T00:58:43;56.40;;;26.30;;
70560;SDS011;58109;53.570;10.084;2022-11-14T01:01:16;58.13;;;28.40;;
70560;SDS011;58109;53.570;10.084;2022-11-14T01:03:46;51.67;;;25.63;;
70560;SDS011;58109;53.570;10.084;2022-11-14T01:06:13;57.40;;;28.50;;
70560;SDS011;58109;53.570;10.084;2022-11-14T01:08:39;52.17;;;27.47;;
70560;SDS011;58109;53.570;10.084;2022-11-14T01:11:11;62.80;;;27.53;;
70560;SDS011;58109;53.570;10.084;2022-11-14T01:13:39;53.13;;;26.50;;
70560;SDS011;58109;53.570;10.084;2022-11-14T01:16:05;57.57;;;28.70;;
70560;SDS011;58109;53.570;10.084;2022-11-14T01:18:31;54.60;;;26.27;;
70560;SDS011;58109;53.570;10.084;2022-11-14T01:20:56;49.10;;;25.17;;
70560;SDS011;58109;53.570;10.084;2022-11-14T01:23:27;54.73;;;26.67;;
70560;SDS011;58109;53.570;10.084;2022-11-14T01:25:53;54.60;;;26.70;;
70560;SDS011;58109;53.570;10.084;2022-11-14T01:28:18;55.50;;;26.57;;
70560;SDS011;58109;53.570;10.084;2022-11-14T01:30:44;54.77;;;26.33;;
70560;SDS011;58109;53.570;10.084;2022-11-14T01:33:12;51.93;;;25.60;;
70560;SDS011;58109;53.570;10.084;2022-11-14T01:35:38;53.80;;;27.60;;
70560;SDS011;58109;53.570;10.084;2022-11-14T01:38:05;57.33;;;27.00;;
70560;SDS011;58109;53.570;10.084;2022-11-14T01:40:31;57.47;;;27.23;;
70560;SDS011;58109;53.570;10.084;2022-11-14T01:48:20;55.70;;;26.60;;
70560;SDS011;58109;53.570;10.084;2022-11-14T01:50:49;60.63;;;28.27;;
70560;SDS011;58109;53.570;10.084;2022-11-14T01:53:19;55.23;;;28.20;;
70560;SDS011;58109;53.570;10.084;2022-11-14T01:55:45;64.07;;;29.03;;
70560;SDS011;58109;53.570;10.084;2022-11-14T01:58:10;56.70;;;27.07;;
70560;SDS011;58109;53.570;10.084;2022-11-14T02:00:36;61.97;;;30.17;;
70560;SDS011;58109;53.570;10.084;2022-11-14T02:03:01;56.60;;;27.13;;
70560;SDS011;58109;53.570;10.084;2022-11-14T02:05:30;65.07;;;27.90;;
70560;SDS011;58109;53.570;10.084;2022-11-14T02:07:56;55.13;;;28.10;;
70560;SDS011;58109;53.570;10.084;2022-11-14T02:10:22;55.33;;;28.03;;
70560;SDS011;58109;53.570;10.084;2022-11-14T02:12:47;66.90;;;29.30;;
70560;SDS011;58109;53.570;10.084;2022-11-14T02:15:13;60.43;;;28.17;;
70560;SDS011;58109;53.570;10.084;2022-11-14T02:17:42;51.50;;;27.70;;
70560;SDS011;58109;53.570;10.084;2022-11-14T02:22:33;64.23;;;29.60;;
70560;SDS011;58109;53.570;10.084;2022-11-14T02:24:59;62.90;;;29.47;;
70560;SDS011;58109;53.570;10.084;2022-11-14T02:27:24;59.90;;;28.03;;
70560;SDS011;58109;53.570;10.084;2022-11-14T02:29:50;58.93;;;27.73;;
70560;SDS011;58109;53.570;10.084;2022-11-14T02:32:18;61.77;;;28.70;;
70560;SDS011;58109;53.570;10.084;2022-11-14T02:34:43;61.57;;;28.97;;
70560;SDS011;58109;53.570;10.084;2022-11-14T02:37:09;62.20;;;27.50;;
70560;SDS011;58109;53.570;10.084;2022-11-14T02:39:34;57.93;;;29.50;;
70560;SDS011;58109;53.570;10.084;2022-11-14T02:42:00;56.80;;;28.00;;
70560;SDS011;58109;53.570;10.084;2022-11-14T02:44:25;68.83;;;31.20;;
70560;SDS011;58109;53.570;10.084;2022-11-14T02:46:53;53.90;;;26.80;;
70560;SDS011;58109;53.570;10.084;2022-11-14T02:49:19;59.63;;;27.20;;
70560;SDS011;58109;53.570;10.084;2022-11-14T02:51:44;62.23;;;28.73;;
70560;SDS011;58109;53.570;10.084;2022-11-14T02:54:12;57.33;;;28.60;;
70560;SDS011;58109;53.570;10.084;2022-11-14T02:56:37;57.63;;;28.00;;
70560;SDS011;58109;53.570;10.084;2022-11-14T02:59:03;55.77;;;28.57;;
70560;SDS011;58109;53.570;10.084;2022-11-14T03:01:28;63.57;;;27.53;;
70560;SDS011;58109;53.570;10.084;2022-11-14T03:03:54;53.40;;;27.83;;
70560;SDS011;58109;53.570;10.084;2022-11-14T03:06:19;54.77;;;27.27;;
70560;SDS011;58109;53.570;10.084;2022-11-14T03:08:44;58.87;;;29.83;;
70560;SDS011;58109;53.570;10.084;2022-11-14T03:11:10;55.10;;;29.33;;
70560;SDS011;58109;53.570;10.084;2022-11-14T03:13:35;63.80;;;30.00;;
70560;SDS011;58109;53.570;10.084;2022-11-14T03:16:08;62.10;;;30.57;;
70560;SDS011;58109;53.570;10.084;2022-11-14T03:18:38;57.90;;;29.20;;
70560;SDS011;58109;53.570;10.084;2022-11-14T03:21:14;58.47;;;28.90;;
70560;SDS011;58109;53.570;10.084;2022-11-14T03:23:41;62.60;;;30.63;;
70560;SDS011;58109;53.570;10.084;2022-11-14T03:26:10;60.70;;;29.13;;
70560;SDS011;58109;53.570;10.084;2022-11-14T03:28:36;61.83;;;29.63;;
70560;SDS011;58109;53.570;10.084;2022-11-14T03:31:02;65.53;;;30.70;;
70560;SDS011;58109;53.570;10.084;2022-11-14T03:33:30;61.13;;;29.13;;
70560;SDS011;58109;53.570;10.084;2022-11-14T03:35:58;62.67;;;30.50;;
70560;SDS011;58109;53.570;10.084;2022-11-14T03:38:23;62.53;;;31.10;;
70560;SDS011;58109;53.570;10.084;2022-11-14T03:40:49;65.50;;;31.60;;
70560;SDS011;58109;53.570;10.084;2022-11-14T03:43:16;60.43;;;28.87;;
70560;SDS011;58109;53.570;10.084;2022-11-14T03:45:42;61.53;;;30.13;;
70560;SDS011;58109;53.570;10.084;2022-11-14T03:48:08;64.30;;;30.60;;
70560;SDS011;58109;53.570;10.084;2022-11-14T03:50:33;62.87;;;29.90;;
70560;SDS011;58109;53.570;10.084;2022-11-14T03:52:59;58.90;;;29.70;;
70560;SDS011;58109;53.570;10.084;2022-11-14T03:55:24;65.10;;;31.17;;
70560;SDS011;58109;53.570;10.084;2022-11-14T03:57:50;67.00;;;31.07;;
70560;SDS011;58109;53.570;10.084;2022-11-14T04:00:18;58.40;;;28.20;;
70560;SDS011;58109;53.570;10.084;2022-11-14T04:02:43;57.93;;;28.40;;
70560;SDS011;58109;53.570;10.084;2022-11-14T04:05:09;53.27;;;27.83;;
70560;SDS011;58109;53.570;10.084;2022-11-14T04:07:37;52.73;;;28.17;;
70560;SDS011;58109;53.570;10.084;2022-11-14T04:10:02;57.27;;;28.90;;
70560;SDS011;58109;53.570;10.084;2022-11-14T04:12:31;60.27;;;29.93;;
70560;SDS011;58109;53.570;10.084;2022-11-14T04:14:56;65.43;;;29.03;;
70560;SDS011;58109;53.570;10.084;2022-11-14T04:17:22;65.20;;;30.27;;
70560;SDS011;58109;53.570;10.084;2022-11-14T04:19:50;57.70;;;29.53;;
70560;SDS011;58109;53.570;10.084;2022-11-14T04:22:17;60.63;;;29.37;;
70560;SDS011;58109;53.570;10.084;2022-11-14T04:24:43;61.63;;;28.37;;
70560;SDS011;58109;53.570;10.084;2022-11-14T04:27:08;52.30;;;27.27;;
70560;SDS011;58109;53.570;10.084;2022-11-14T04:29:34;56.40;;;27.43;;
70560;SDS011;58109;53.570;10.084;2022-11-14T04:31:59;62.40;;;29.27;;
70560;SDS011;58109;53.570;10.084;2022-11-14T04:34:24;61.00;;;28.03;;
70560;SDS011;58109;53.570;10.084;2022-11-14T04:36:50;64.27;;;29.40;;
70560;SDS011;58109;53.570;10.084;2022-11-14T04:39:16;57.07;;;27.60;;
70560;SDS011;58109;53.570;10.084;2022-11-14T04:41:41;65.17;;;28.83;;
70560;SDS011;58109;53.570;10.084;2022-11-14T04:44:09;54.40;;;26.00;;
70560;SDS011;58109;53.570;10.084;2022-11-14T04:46:35;62.87;;;28.67;;
70560;SDS011;58109;53.570;10.084;2022-11-14T04:49:00;61.97;;;27.93;;
70560;SDS011;58109;53.570;10.084;2022-11-14T04:51:25;69.90;;;30.67;;
70560;SDS011;58109;53.570;10.084;2022-11-14T04:53:51;62.37;;;29.03;;
70560;SDS011;58109;53.570;10.084;2022-11-14T04:56:16;67.77;;;28.97;;
70560;SDS011;58109;53.570;10.084;2022-11-14T04:58:42;69.27;;;30.03;;
70560;SDS011;58109;53.570;10.084;2022-11-14T05:01:07;64.27;;;29.53;;
70560;SDS011;58109;53.570;10.084;2022-11-14T05:03:36;62.03;;;28.47;;
70560;SDS011;58109;53.570;10.084;2022-11-14T05:06:01;58.37;;;29.80;;
70560;SDS011;58109;53.570;10.084;2022-11-14T05:08:27;62.03;;;28.77;;
70560;SDS011;58109;53.570;10.084;2022-11-14T05:10:52;59.50;;;28.63;;
70560;SDS011;58109;53.570;10.084;2022-11-14T05:13:17;65.73;;;31.63;;
70560;SDS011;58109;53.570;10.084;2022-11-14T05:15:46;72.20;;;31.47;;
70560;SDS011;58109;53.570;10.084;2022-11-14T05:18:11;62.57;;;28.73;;
70560;SDS011;58109;53.570;10.084;2022-11-14T05:20:37;62.43;;;30.20;;
70560;SDS011;58109;53.570;10.084;2022-11-14T05:23:02;71.60;;;31.10;;
70560;SDS011;58109;53.570;10.084;2022-11-14T05:25:28;71.80;;;30.90;;
70560;SDS011;58109;53.570;10.084;2022-11-14T05:27:53;66.17;;;31.27;;
70560;SDS011;58109;53.570;10.084;2022-11-14T05:30:18;62.07;;;31.17;;
70560;SDS011;58109;53.570;10.084;2022-11-14T05:32:44;70.73;;;31.77;;
70560;SDS011;58109;53.570;10.084;2022-11-14T05:35:09;66.53;;;30.40;;
70560;SDS011;58109;53.570;10.084;2022-11-14T05:37:35;64.00;;;29.90;;
70560;SDS011;58109;53.570;10.084;2022-11-14T05:40:01;79.03;;;30.07;;
70560;SDS011;58109;53.570;10.084;2022-11-14T05:42:30;70.00;;;31.50;;
70560;SDS011;58109;53.570;10.084;2022-11-14T05:44:55;73.13;;;32.13;;
70560;SDS011;58109;53.570;10.084;2022-11-14T05:47:20;74.10;;;32.17;;
70560;SDS011;58109;53.570;10.084;2022-11-14T05:49:46;69.23;;;31.83;;
70560;SDS011;58109;53.570;10.084;2022-11-14T05:52:11;61.87;;;29.80;;
70560;SDS011;58109;53.570;10.084;2022-11-14T05:54:37;63.53;;;29.23;;
70560;SDS011;58109;53.570;10.084;2022-11-14T05:57:04;67.37;;;30.40;;
70560;SDS011;58109;53.570;10.084;2022-11-14T05:59:30;64.97;;;30.87;;
70560;SDS011;58109;53.570;10.084;2022-11-14T06:01:55;69.20;;;30.73;;
70560;SDS011;58109;53.570;10.084;2022-11-14T06:04:23;65.77;;;31.87;;
70560;SDS011;58109;53.570;10.084;2022-11-14T06:06:48;72.00;;;32.17;;
70560;SDS011;58109;53.570;10.084;2022-11-14T06:09:14;63.67;;;31.13;;
70560;SDS011;58109;53.570;10.084;2022-11-14T06:11:39;64.87;;;30.23;;
70560;SDS011;58109;53.570;10.084;2022-11-14T06:14:05;67.60;;;32.50;;
70560;SDS011;58109;53.570;10.084;2022-11-14T06:16:30;61.17;;;29.20;;
70560;SDS011;58109;53.570;10.084;2022-11-14T06:18:56;71.90;;;30.33;;
70560;SDS011;58109;53.570;10.084;2022-11-14T06:21:22;73.27;;;31.57;;
70560;SDS011;58109;53.570;10.084;2022-11-14T06:23:48;67.47;;;31.20;;
70560;SDS011;58109;53.570;10.084;2022-11-14T06:26:18;69.87;;;30.90;;
70560;SDS011;58109;53.570;10.084;2022-11-14T06:28:48;64.43;;;30.33;;
70560;SDS011;58109;53.570;10.084;2022-11-14T06:31:15;68.73;;;29.60;;
70560;SDS011;58109;53.570;10.084;2022-11-14T06:33:40;61.60;;;29.40;;
70560;SDS011;58109;53.570;10.084;2022-11-14T06:36:06;67.75;;;33.70;;
70560;SDS011;58109;53.570;10.084;2022-11-14T06:38:33;73.80;;;32.03;;
70560;SDS011;58109;53.570;10.084;2022-11-14T06:43:48;74.57;;;31.33;;
70560;SDS011;58109;53.570;10.084;2022-11-14T06:46:16;74.43;;;31.07;;
70560;SDS011;58109;53.570;10.084;2022-11-14T06:48:45;65.93;;;30.37;;
70560;SDS011;58109;53.570;10.084;2022-11-14T06:51:14;68.90;;;31.47;;
70560;SDS011;58109;53.570;10.084;2022-11-14T06:53:40;65.10;;;30.03;;
70560;SDS011;58109;53.570;10.084;2022-11-14T06:56:12;65.97;;;29.80;;
70560;SDS011;58109;53.570;10.084;2022-11-14T06:58:40;73.50;;;32.77;;
70560;SDS011;58109;53.570;10.084;2022-11-14T07:01:19;74.60;;;33.17;;
70560;SDS011;58109;53.570;10.084;2022-11-14T07:03:46;76.57;;;32.57;;
70560;SDS011;58109;53.570;10.084;2022-11-14T07:06:13;67.57;;;31.17;;
70560;SDS011;58109;53.570;10.084;2022-11-14T07:08:43;77.00;;;32.90;;
70560;SDS011;58109;53.570;10.084;2022-11-14T07:11:12;73.33;;;30.47;;
70560;SDS011;58109;53.570;10.084;2022-11-14T07:13:47;73.10;;;32.20;;
70560;SDS011;58109;53.570;10.084;2022-11-14T07:16:19;72.20;;;30.53;;
70560;SDS011;58109;53.570;10.084;2022-11-14T07:18:45;66.60;;;30.90;;
70560;SDS011;58109;53.570;10.084;2022-11-14T07:21:10;76.57;;;32.93;;
70560;SDS011;58109;53.570;10.084;2022-11-14T07:23:37;70.70;;;31.60;;
70560;SDS011;58109;53.570;10.084;2022-11-14T07:26:03;67.90;;;30.50;;
70560;SDS011;58109;53.570;10.084;2022-11-14T07:28:33;79.47;;;33.07;;
70560;SDS011;58109;53.570;10.084;2022-11-14T07:31:07;68.53;;;32.20;;
70560;SDS011;58109;53.570;10.084;2022-11-14T07:33:39;72.30;;;32.20;;
70560;SDS011;58109;53.570;10.084;2022-11-14T07:36:05;69.90;;;31.67;;
70560;SDS011;58109;53.570;10.084;2022-11-14T07:38:31;64.90;;;29.97;;
70560;SDS011;58109;53.570;10.084;2022-11-14T07:43:23;74.83;;;33.07;;
70560;SDS011;58109;53.570;10.084;2022-11-14T07:45:49;76.90;;;34.03;;
70560;SDS011;58109;53.570;10.084;2022-11-14T07:48:15;82.00;;;33.27;;
70560;SDS011;58109;53.570;10.084;2022-11-14T07:50:43;77.43;;;34.37;;
70560;SDS011;58109;53.570;10.084;2022-11-14T07:53:08;73.93;;;31.80;;
70560;SDS011;58109;53.570;10.084;2022-11-14T07:55:34;71.50;;;32.10;;
70560;SDS011;58109;53.570;10.084;2022-11-14T07:58:00;83.33;;;35.33;;
70560;SDS011;58109;53.570;10.084;2022-11-14T08:00:26;70.07;;;31.70;;
70560;SDS011;58109;53.570;10.084;2022-11-14T08:02:51;72.47;;;31.90;;
70560;SDS011;58109;53.570;10.084;2022-11-14T08:05:17;72.60;;;30.80;;
70560;SDS011;58109;53.570;10.084;2022-11-14T08:07:42;75.43;;;32.60;;
70560;SDS011;58109;53.570;10.084;2022-11-14T08:10:10;83.43;;;35.17;;
70560;SDS011;58109;53.570;10.084;2022-11-14T08:12:41;75.17;;;32.60;;
70560;SDS011;58109;53.570;10.084;2022-11-14T08:15:10;77.60;;;35.17;;
70560;SDS011;58109;53.570;10.084;2022-11-14T08:17:36;80.80;;;34.20;;
70560;SDS011;58109;53.570;10.084;2022-11-14T08:20:02;77.67;;;31.47;;
70560;SDS011;58109;53.570;10.084;2022-11-14T08:22:29;80.57;;;34.80;;
70560;SDS011;58109;53.570;10.084;2022-11-14T08:24:55;83.17;;;34.80;;
70560;SDS011;58109;53.570;10.084;2022-11-14T08:27:21;78.70;;;33.40;;
70560;SDS011;58109;53.570;10.084;2022-11-14T08:29:46;84.30;;;33.20;;
70560;SDS011;58109;53.570;10.084;2022-11-14T08:32:12;83.93;;;33.10;;
70560;SDS011;58109;53.570;10.084;2022-11-14T08:34:37;77.70;;;31.17;;
70560;SDS011;58109;53.570;10.084;2022-11-14T08:37:03;74.23;;;32.37;;
70560;SDS011;58109;53.570;10.084;2022-11-14T08:39:28;77.17;;;31.23;;
70560;SDS011;58109;53.570;10.084;2022-11-14T08:41:53;84.63;;;32.80;;
70560;SDS011;58109;53.570;10.084;2022-11-14T08:44:19;71.87;;;30.87;;
70560;SDS011;58109;53.570;10.084;2022-11-14T08:46:45;67.90;;;30.70;;
70560;SDS011;58109;53.570;10.084;2022-11-14T08:49:10;84.47;;;33.23;;
70560;SDS011;58109;53.570;10.084;2022-11-14T08:51:36;77.47;;;32.97;;
70560;SDS011;58109;53.570;10.084;2022-11-14T08:54:01;72.87;;;31.10;;
70560;SDS011;58109;53.570;10.084;2022-11-14T08:56:27;86.47;;;34.40;;
70560;SDS011;58109;53.570;10.084;2022-11-14T08:58:52;78.07;;;32.13;;
70560;SDS011;58109;53.570;10.084;2022-11-14T09:01:17;66.53;;;30.03;;
70560;SDS011;58109;53.570;10.084;2022-11-14T09:03:43;69.50;;;31.80;;
70560;SDS011;58109;53.570;10.084;2022-11-14T09:06:08;72.50;;;30.27;;
70560;SDS011;58109;53.570;10.084;2022-11-14T09:08:34;66.70;;;29.70;;
70560;SDS011;58109;53.570;10.084;2022-11-14T09:11:00;75.43;;;32.60;;
70560;SDS011;58109;53.570;10.084;2022-11-14T09:13:26;76.47;;;30.80;;
70560;SDS011;58109;53.570;10.084;2022-11-14T09:15:51;79.33;;;31.57;;
70560;SDS011;58109;53.570;10.084;2022-11-14T09:18:17;75.53;;;31.93;;
70560;SDS011;58109;53.570;10.084;2022-11-14T09:20:43;74.70;;;31.93;;
70560;SDS011;58109;53.570;10.084;2022-11-14T09:23:08;83.90;;;32.70;;
70560;SDS011;58109;53.570;10.084;2022-11-14T09:25:34;79.90;;;33.50;;
70560;SDS011;58109;53.570;10.084;2022-11-14T09:28:02;71.60;;;32.40;;
70560;SDS011;58109;53.570;10.084;2022-11-14T09:30:29;69.97;;;31.20;;
70560;SDS011;58109;53.570;10.084;2022-11-14T09:32:57;72.03;;;30.10;;
70560;SDS011;58109;53.570;10.084;2022-11-14T09:35:25;79.13;;;31.90;;
70560;SDS011;58109;53.570;10.084;2022-11-14T09:37:57;82.80;;;33.40;;
70560;SDS011;58109;53.570;10.084;2022-11-14T09:40:26;86.77;;;32.77;;
70560;SDS011;58109;53.570;10.084;2022-11-14T09:45:30;74.30;;;30.47;;
70560;SDS011;58109;53.570;10.084;2022-11-14T09:48:05;85.50;;;32.07;;
70560;SDS011;58109;53.570;10.084;2022-11-14T09:53:36;78.37;;;31.67;;
70560;SDS011;58109;53.570;10.084;2022-11-14T09:56:13;80.93;;;33.17;;
70560;SDS011;58109;53.570;10.084;2022-11-14T09:58:39;78.90;;;32.03;;
70560;SDS011;58109;53.570;10.084;2022-11-14T10:09:41;83.57;;;32.23;;
70560;SDS011;58109;53.570;10.084;2022-11-14T10:12:20;76.20;;;32.60;;
70560;SDS011;58109;53.570;10.084;2022-11-14T10:23:41;70.03;;;30.40;;
70560;SDS011;58109;53.570;10.084;2022-11-14T10:31:28;68.30;;;30.93;;
70560;SDS011;58109;53.570;10.084;2022-11-14T10:34:10;74.63;;;30.30;;
70560;SDS011;58109;53.570;10.084;2022-11-14T10:39:50;66.27;;;29.27;;
70560;SDS011;58109;53.570;10.084;2022-11-14T10:42:31;70.07;;;31.63;;
70560;SDS011;58109;53.570;10.084;2022-11-14T10:45:01;64.10;;;29.07;;
70560;SDS011;58109;53.570;10.084;2022-11-14T10:47:31;69.77;;;30.17;;
70560;SDS011;58109;53.570;10.084;2022-11-14T10:50:08;67.40;;;29.70;;
70560;SDS011;58109;53.570;10.084;2022-11-14T10:52:46;63.60;;;28.80;;
70560;SDS011;58109;53.570;10.084;2022-11-14T10:55:13;58.30;;;27.80;;
70560;SDS011;58109;53.570;10.084;2022-11-14T10:57:44;75.47;;;29.93;;
70560;SDS011;58109;53.570;10.084;2022-11-14T11:00:14;66.43;;;29.57;;
70560;SDS011;58109;53.570;10.084;2022-11-14T11:02:51;66.97;;;29.20;;
70560;SDS011;58109;53.570;10.084;2022-11-14T11:05:21;65.50;;;30.70;;
70560;SDS011;58109;53.570;10.084;2022-11-14T11:07:49;65.63;;;29.80;;
70560;SDS011;58109;53.570;10.084;2022-11-14T11:10:34;68.00;;;29.43;;
70560;SDS011;58109;53.570;10.084;2022-11-14T11:13:29;69.10;;;29.73;;
70560;SDS011;58109;53.570;10.084;2022-11-14T11:15:57;72.00;;;31.20;;
70560;SDS011;58109;53.570;10.084;2022-11-14T11:23:34;60.70;;;28.90;;
70560;SDS011;58109;53.570;10.084;2022-11-14T11:26:05;67.17;;;29.90;;
70560;SDS011;58109;53.570;10.084;2022-11-14T11:28:39;62.77;;;28.77;;
70560;SDS011;58109;53.570;10.084;2022-11-14T11:31:09;61.23;;;28.37;;
70560;SDS011;58109;53.570;10.084;2022-11-14T11:33:35;66.03;;;28.50;;
70560;SDS011;58109;53.570;10.084;2022-11-14T11:36:15;61.53;;;28.57;;
70560;SDS011;58109;53.570;10.084;2022-11-14T11:38:42;61.40;;;29.10;;
70560;SDS011;58109;53.570;10.084;2022-11-14T11:43:58;56.77;;;27.00;;
70560;SDS011;58109;53.570;10.084;2022-11-14T11:46:59;53.97;;;26.10;;
70560;SDS011;58109;53.570;10.084;2022-11-14T11:52:12;57.70;;;25.80;;
70560;SDS011;58109;53.570;10.084;2022-11-14T11:54:52;51.57;;;24.97;;
70560;SDS011;58109;53.570;10.084;2022-11-14T11:57:23;58.40;;;28.10;;
70560;SDS011;58109;53.570;10.084;2022-11-14T11:59:56;54.97;;;27.20;;
70560;SDS011;58109;53.570;10.084;2022-11-14T12:02:28;53.63;;;25.63;;
70560;SDS011;58109;53.570;10.084;2022-11-14T12:04:54;47.20;;;25.07;;
70560;SDS011;58109;53.570;10.084;2022-11-14T12:07:42;51.47;;;26.77;;
70560;SDS011;58109;53.570;10.084;2022-11-14T12:10:19;49.33;;;24.80;;
70560;SDS011;58109;53.570;10.084;2022-11-14T12:12:51;49.77;;;24.50;;
70560;SDS011;58109;53.570;10.084;2022-11-14T12:27:22;54.50;;;25.97;;
70560;SDS011;58109;53.570;10.084;2022-11-14T12:30:17;46.63;;;24.10;;
70560;SDS011;58109;53.570;10.084;2022-11-14T12:35:18;53.70;;;26.23;;
70560;SDS011;58109;53.570;10.084;2022-11-14T12:37:49;47.37;;;24.83;;
70560;SDS011;58109;53.570;10.084;2022-11-14T12:42:49;50.47;;;24.47;;
70560;SDS011;58109;53.570;10.084;2022-11-14T12:50:49;53.37;;;26.77;;
70560;SDS011;58109;53.570;10.084;2022-11-14T13:04:31;64.80;;;29.30;;
70560;SDS011;58109;53.570;10.084;2022-11-14T13:09:42;55.27;;;28.20;;
70560;SDS011;58109;53.570;10.084;2022-11-14T13:15:25;62.73;;;27.93;;
70560;SDS011;58109;53.570;10.084;2022-11-14T13:18:28;60.30;;;28.60;;
70560;SDS011;58109;53.570;10.084;2022-11-14T13:21:20;60.33;;;27.73;;
70560;SDS011;58109;53.570;10.084;2022-11-14T13:24:06;52.73;;;25.53;;
70560;SDS011;58109;53.570;10.084;2022-11-14T13:28:58;55.83;;;26.77;;
70560;SDS011;58109;53.570;10.084;2022-11-14T13:31:41;59.80;;;27.23;;
70560;SDS011;58109;53.570;10.084;2022-11-14T13:39:47;55.87;;;27.83;;
70560;SDS011;58109;53.570;10.084;2022-11-14T13:42:28;61.23;;;27.30;;
70560;SDS011;58109;53.570;10.084;2022-11-14T13:45:03;54.90;;;27.57;;
70560;SDS011;58109;53.570;10.084;2022-11-14T13:50:33;56.13;;;27.80;;
70560;SDS011;58109;53.570;10.084;2022-11-14T13:53:13;55.23;;;27.00;;
70560;SDS011;58109;53.570;10.084;2022-11-14T13:55:50;60.10;;;28.40;;
70560;SDS011;58109;53.570;10.084;2022-11-14T14:06:16;56.13;;;27.97;;
70560;SDS011;58109;53.570;10.084;2022-11-14T14:17:21;59.43;;;27.43;;
70560;SDS011;58109;53.570;10.084;2022-11-14T14:23:12;57.07;;;27.90;;
70560;SDS011;58109;53.570;10.084;2022-11-14T14:33:42;60.13;;;27.63;;
70560;SDS011;58109;53.570;10.084;2022-11-14T14:41:50;65.47;;;27.63;;
70560;SDS011;58109;53.570;10.084;2022-11-14T14:44:29;53.20;;;25.90;;
70560;SDS011;58109;53.570;10.084;2022-11-14T14:47:16;55.17;;;26.30;;
70560;SDS011;58109;53.570;10.084;2022-11-14T14:49:48;61.13;;;27.80;;
70560;SDS011;58109;53.570;10.084;2022-11-14T14:52:34;56.43;;;27.33;;
70560;SDS011;58109;53.570;10.084;2022-11-14T14:55:05;52.10;;;26.67;;
70560;SDS011;58109;53.570;10.084;2022-11-14T14:57:40;58.90;;;29.90;;
70560;SDS011;58109;53.570;10.084;2022-11-14T15:00:07;63.70;;;28.60;;
70560;SDS011;58109;53.570;10.084;2022-11-14T15:02:56;57.20;;;26.63;;
70560;SDS011;58109;53.570;10.084;2022-11-14T15:05:24;60.43;;;28.80;;
70560;SDS011;58109;53.570;10.084;2022-11-14T15:07:52;63.37;;;29.00;;
70560;SDS011;58109;53.570;10.084;2022-11-14T15:10:22;62.90;;;27.93;;
70560;SDS011;58109;53.570;10.084;2022-11-14T15:12:58;57.50;;;27.27;;
70560;SDS011;58109;53.570;10.084;2022-11-14T15:15:26;56.63;;;26.73;;
70560;SDS011;58109;53.570;10.084;2022-11-14T15:17:57;64.43;;;30.80;;
70560;SDS011;58109;53.570;10.084;2022-11-14T15:20:29;59.57;;;27.13;;
70560;SDS011;58109;53.570;10.084;2022-11-14T15:25:36;64.80;;;27.37;;
70560;SDS011;58109;53.570;10.084;2022-11-14T15:28:13;64.90;;;28.17;;
70560;SDS011;58109;53.570;10.084;2022-11-14T15:30:41;69.13;;;29.70;;
70560;SDS011;58109;53.570;10.084;2022-11-14T15:33:24;61.80;;;28.10;;
70560;SDS011;58109;53.570;10.084;2022-11-14T15:36:08;61.43;;;27.67;;
70560;SDS011;58109;53.570;10.084;2022-11-14T15:38:37;69.53;;;29.97;;
70560;SDS011;58109;53.570;10.084;2022-11-14T15:41:09;62.87;;;29.70;;
70560;SDS011;58109;53.570;10.084;2022-11-14T15:48:54;62.70;;;28.80;;
70560;SDS011;58109;53.570;10.084;2022-11-14T15:51:39;69.20;;;28.87;;
70560;SDS011;58109;53.570;10.084;2022-11-14T15:56:48;61.20;;;28.97;;
70560;SDS011;58109;53.570;10.084;2022-11-14T15:59:16;56.53;;;27.83;;
70560;SDS011;58109;53.570;10.084;2022-11-14T16:01:48;66.80;;;29.53;;
70560;SDS011;58109;53.570;10.084;2022-11-14T16:04:19;59.00;;;27.17;;
70560;SDS011;58109;53.570;10.084;2022-11-14T16:06:49;66.20;;;30.17;;
70560;SDS011;58109;53.570;10.084;2022-11-14T16:09:17;54.57;;;28.10;;
70560;SDS011;58109;53.570;10.084;2022-11-14T16:11:47;68.00;;;30.93;;
70560;SDS011;58109;53.570;10.084;2022-11-14T16:14:13;62.07;;;28.27;;
70560;SDS011;58109;53.570;10.084;2022-11-14T16:16:41;58.03;;;28.97;;
70560;SDS011;58109;53.570;10.084;2022-11-14T16:19:06;55.07;;;27.20;;
70560;SDS011;58109;53.570;10.084;2022-11-14T16:21:32;62.43;;;28.60;;
70560;SDS011;58109;53.570;10.084;2022-11-14T16:23:58;67.00;;;30.13;;
70560;SDS011;58109;53.570;10.084;2022-11-14T16:26:23;63.93;;;29.20;;
70560;SDS011;58109;53.570;10.084;2022-11-14T16:28:50;60.20;;;28.70;;
70560;SDS011;58109;53.570;10.084;2022-11-14T16:31:16;66.87;;;30.77;;
70560;SDS011;58109;53.570;10.084;2022-11-14T16:33:42;64.07;;;28.70;;
70560;SDS011;58109;53.570;10.084;2022-11-14T16:36:09;63.90;;;30.87;;
70560;SDS011;58109;53.570;10.084;2022-11-14T16:38:35;61.20;;;27.07;;
70560;SDS011;58109;53.570;10.084;2022-11-14T16:41:03;61.53;;;29.03;;
70560;SDS011;58109;53.570;10.084;2022-11-14T16:43:31;60.93;;;27.80;;
70560;SDS011;58109;53.570;10.084;2022-11-14T16:45:56;57.33;;;27.93;;
70560;SDS011;58109;53.570;10.084;2022-11-14T16:48:22;60.43;;;28.03;;